Time;durP1;ratioP1;P1;durP2;ratioP2;P2;SDS_P1;SDS_P2;PMS_P1;PMS_P2;Temp;Humidity;BMP_temperature;BMP_pressure;BME280_temperature;BME280_humidity;BME280_pressure;Samples;Min_cycle;Max_cycle;Signal;HPM_P1;HPM_P2
2023/06/06 00:01:13;;;;;;;11.27;5.38;;;14.90;77.20;;;;;;4975956;28;20031;-78
2023/06/06 00:03:38;;;;;;;11.18;5.50;;;14.80;77.10;;;;;;4977048;28;20030;-77
2023/06/06 00:06:04;;;;;;;10.60;6.05;;;14.80;77.20;;;;;;4976658;28;20035;-77
2023/06/06 00:08:33;;;;;;;11.25;6.20;;;14.70;77.30;;;;;;4975182;28;20118;-78
2023/06/06 00:10:58;;;;;;;12.13;6.10;;;14.70;78.20;;;;;;4975993;28;20034;-79
2023/06/06 00:13:27;;;;;;;10.68;5.95;;;14.60;78.50;;;;;;4976867;28;20387;-77
2023/06/06 00:15:54;;;;;;;11.50;6.72;;;14.60;78.50;;;;;;4976490;28;20033;-77
2023/06/06 00:18:19;;;;;;;11.23;6.45;;;14.50;78.70;;;;;;4976509;28;20027;-78
2023/06/06 00:20:46;;;;;;;10.07;5.70;;;14.50;78.80;;;;;;4976998;28;20038;-79
2023/06/06 00:23:12;;;;;;;10.98;5.88;;;14.40;78.70;;;;;;4976963;28;20027;-79
2023/06/06 00:25:38;;;;;;;12.70;5.68;;;14.40;78.70;;;;;;4960156;28;20491;-79
2023/06/06 00:28:04;;;;;;;11.25;6.68;;;14.30;79.10;;;;;;4976036;28;20039;-79
2023/06/06 00:30:29;;;;;;;11.95;6.55;;;14.30;79.40;;;;;;4976690;28;20027;-77
2023/06/06 00:32:55;;;;;;;9.38;5.68;;;14.30;79.80;;;;;;4975728;28;20439;-80
2023/06/06 00:35:21;;;;;;;11.48;5.88;;;14.20;79.90;;;;;;4975167;28;20098;-78
2023/06/06 00:37:46;;;;;;;10.48;6.32;;;14.20;79.70;;;;;;4975782;28;20030;-80
2023/06/06 00:40:12;;;;;;;12.55;5.85;;;14.10;79.80;;;;;;4975741;28;20475;-73
2023/06/06 00:42:38;;;;;;;10.80;5.90;;;14.00;79.70;;;;;;4974120;28;20114;-73
2023/06/06 00:45:04;;;;;;;14.93;6.15;;;14.00;80.20;;;;;;4975158;28;20117;-73
2023/06/06 00:47:30;;;;;;;12.15;5.57;;;14.00;80.50;;;;;;4975110;28;20031;-73
2023/06/06 00:49:56;;;;;;;13.35;6.28;;;14.00;80.50;;;;;;4973904;28;20154;-73
2023/06/06 00:52:23;;;;;;;11.30;5.80;;;13.90;80.80;;;;;;4975078;28;20058;-73
2023/06/06 00:54:50;;;;;;;11.98;6.70;;;13.90;80.80;;;;;;4973653;28;20026;-73
2023/06/06 00:57:18;;;;;;;11.05;6.85;;;13.80;81.30;;;;;;4974898;28;20054;-73
2023/06/06 00:59:45;;;;;;;14.10;6.30;;;13.80;81.10;;;;;;4973596;28;20026;-73
2023/06/06 01:02:17;;;;;;;14.68;6.63;;;13.70;81.70;;;;;;4974838;28;20030;-73
2023/06/06 01:04:43;;;;;;;11.88;6.68;;;13.70;81.30;;;;;;4974721;28;20038;-73
2023/06/06 01:07:12;;;;;;;11.98;6.07;;;13.60;81.50;;;;;;4974744;28;20023;-73
2023/06/06 01:09:40;;;;;;;11.73;6.78;;;13.60;81.90;;;;;;4973512;28;20054;-74
2023/06/06 01:12:22;;;;;;;10.93;5.53;;;13.60;82.20;;;;;;4974697;28;20037;-73
2023/06/06 01:15:00;;;;;;;10.57;6.32;;;13.50;82.10;;;;;;4974284;28;20034;-73
2023/06/06 01:17:26;;;;;;;10.95;5.78;;;13.50;82.20;;;;;;4974576;28;20019;-73
2023/06/06 01:19:54;;;;;;;10.07;5.22;;;13.50;82.10;;;;;;4974879;28;20085;-72
2023/06/06 01:22:22;;;;;;;13.80;6.63;;;13.50;82.40;;;;;;4974560;28;20031;-72
2023/06/06 01:24:51;;;;;;;11.18;6.55;;;13.40;82.50;;;;;;4973318;28;20019;-73
2023/06/06 01:27:17;;;;;;;14.77;7.75;;;13.40;82.60;;;;;;4974749;28;20109;-73
2023/06/06 01:29:43;;;;;;;16.75;6.93;;;13.40;83.00;;;;;;4974723;28;20102;-73
2023/06/06 01:32:30;;;;;;;13.60;5.93;;;13.40;83.30;;;;;;4975046;28;20038;-79
2023/06/06 01:35:11;;;;;;;12.38;6.38;;;13.30;83.00;;;;;;4974470;28;20039;-77
2023/06/06 01:37:48;;;;;;;10.95;6.07;;;13.30;83.20;;;;;;4975525;28;20059;-78
2023/06/06 01:40:18;;;;;;;12.38;6.30;;;13.30;83.40;;;;;;4975166;28;20102;-79
2023/06/06 01:42:46;;;;;;;10.40;5.65;;;13.20;83.70;;;;;;4974823;28;20167;-78
2023/06/06 01:45:14;;;;;;;11.50;6.43;;;13.20;83.60;;;;;;4975286;28;20452;-80
2023/06/06 01:47:41;;;;;;;12.50;6.18;;;13.20;83.80;;;;;;4976947;28;20133;-79
2023/06/06 01:50:08;;;;;;;12.10;6.15;;;13.20;83.80;;;;;;4975917;28;20061;-79
2023/06/06 01:52:37;;;;;;;12.63;6.38;;;13.10;84.20;;;;;;4976929;28;20023;-79
2023/06/06 01:55:04;;;;;;;11.13;5.78;;;13.10;84.10;;;;;;4975610;28;20027;-79
2023/06/06 01:57:30;;;;;;;11.38;5.65;;;13.00;84.30;;;;;;4974892;28;20054;-79
2023/06/06 01:59:56;;;;;;;11.45;6.10;;;13.00;84.60;;;;;;4978251;28;20140;-80
2023/06/06 02:02:21;;;;;;;12.93;6.07;;;13.00;85.10;;;;;;4975754;28;20163;-79
2023/06/06 02:04:48;;;;;;;12.10;7.47;;;13.00;85.20;;;;;;4977650;28;20050;-79
2023/06/06 02:07:15;;;;;;;12.00;6.53;;;13.00;85.10;;;;;;4975443;28;20031;-80
2023/06/06 02:09:45;;;;;;;12.27;6.10;;;12.90;85.40;;;;;;4975607;28;20110;-80
2023/06/06 02:12:11;;;;;;;13.10;5.70;;;12.90;85.60;;;;;;4976886;28;20034;-78
2023/06/06 02:14:37;;;;;;;12.27;6.38;;;12.90;85.40;;;;;;4976256;28;20110;-79
2023/06/06 02:17:03;;;;;;;10.90;6.00;;;12.90;85.80;;;;;;4974853;28;20050;-80
2023/06/06 02:19:32;;;;;;;14.18;6.82;;;12.90;85.70;;;;;;4975642;28;20064;-79
2023/06/06 02:21:58;;;;;;;15.98;7.35;;;12.90;85.90;;;;;;4975718;28;20026;-79
2023/06/06 02:24:27;;;;;;;16.42;7.30;;;12.80;85.90;;;;;;4975556;28;20194;-78
2023/06/06 02:26:54;;;;;;;13.00;6.57;;;12.80;86.60;;;;;;4975450;28;20046;-73
2023/06/06 02:29:22;;;;;;;9.40;5.70;;;12.80;86.50;;;;;;4976360;28;20443;-73
2023/06/06 02:31:51;;;;;;;11.27;6.05;;;12.70;86.00;;;;;;4960869;28;20450;-73
2023/06/06 02:34:17;;;;;;;11.77;6.35;;;12.70;86.40;;;;;;4976269;28;20047;-72
2023/06/06 02:36:43;;;;;;;12.70;7.07;;;12.70;87.00;;;;;;4976362;28;20039;-73
2023/06/06 02:39:09;;;;;;;11.35;6.25;;;12.70;87.20;;;;;;4976259;28;20059;-73
2023/06/06 02:41:35;;;;;;;12.90;6.25;;;12.70;86.80;;;;;;4977348;28;20019;-73
2023/06/06 02:44:01;;;;;;;12.35;6.15;;;12.60;87.10;;;;;;4944113;28;20034;-73
2023/06/06 02:46:27;;;;;;;15.27;6.13;;;12.60;87.10;;;;;;4977316;28;20482;-72
2023/06/06 02:48:52;;;;;;;13.05;6.20;;;12.60;87.50;;;;;;4977357;28;20023;-73
2023/06/06 02:51:22;;;;;;;11.52;6.32;;;12.60;87.80;;;;;;4975934;28;20384;-73
2023/06/06 02:53:49;;;;;;;16.38;6.97;;;12.60;88.20;;;;;;4976548;28;20038;-80
2023/06/06 02:56:16;;;;;;;12.13;6.18;;;12.60;88.00;;;;;;4976542;28;20042;-79
2023/06/06 02:58:42;;;;;;;13.23;6.53;;;12.50;88.40;;;;;;4980494;28;20491;-78
2023/06/06 03:01:12;;;;;;;12.25;6.75;;;12.50;88.40;;;;;;4946196;28;20030;-80
2023/06/06 03:03:38;;;;;;;14.10;7.22;;;12.50;88.30;;;;;;4993381;28;20037;-78
2023/06/06 03:06:06;;;;;;;13.25;7.20;;;12.50;88.90;;;;;;4997397;28;20426;-79
2023/06/06 03:08:32;;;;;;;12.93;7.63;;;12.50;88.90;;;;;;4992175;28;20432;-79
2023/06/06 03:10:58;;;;;;;16.25;7.32;;;12.40;89.00;;;;;;4996066;28;20031;-78
2023/06/06 03:13:24;;;;;;;14.90;7.05;;;12.50;89.90;;;;;;4993859;28;20037;-78
2023/06/06 03:15:50;;;;;;;16.88;8.57;;;12.40;89.20;;;;;;4988784;28;20035;-79
2023/06/06 03:18:20;;;;;;;11.95;6.80;;;12.40;89.60;;;;;;4978059;28;20387;-80
2023/06/06 03:20:51;;;;;;;16.80;8.60;;;12.40;89.60;;;;;;4977104;28;20051;-79
2023/06/06 03:23:17;;;;;;;13.95;8.65;;;12.30;89.90;;;;;;4978000;28;20030;-79
2023/06/06 03:25:44;;;;;;;12.45;7.07;;;12.30;90.00;;;;;;4977577;28;20505;-79
2023/06/06 03:28:10;;;;;;;15.35;6.82;;;12.30;89.60;;;;;;4977016;28;20510;-78
2023/06/06 03:30:36;;;;;;;12.82;7.30;;;12.30;89.80;;;;;;4977338;28;20026;-80
2023/06/06 03:33:03;;;;;;;14.10;7.75;;;12.30;90.10;;;;;;4959840;28;20034;-79
2023/06/06 03:35:32;;;;;;;13.52;7.25;;;12.30;90.30;;;;;;4977851;28;20392;-79
2023/06/06 03:37:58;;;;;;;13.45;5.72;;;12.30;90.20;;;;;;4978369;28;20022;-80
2023/06/06 03:40:24;;;;;;;14.98;7.10;;;12.30;90.20;;;;;;4976485;28;20082;-79
2023/06/06 03:42:50;;;;;;;12.37;6.60;;;12.30;90.40;;;;;;4976845;28;20019;-78
2023/06/06 03:45:17;;;;;;;13.20;6.32;;;12.30;90.30;;;;;;4975420;28;20014;-79
2023/06/06 03:47:43;;;;;;;11.68;6.65;;;12.30;90.40;;;;;;4976716;28;20101;-79
2023/06/06 03:50:09;;;;;;;10.82;6.60;;;12.20;90.60;;;;;;4974945;28;20062;-78
2023/06/06 03:52:35;;;;;;;14.63;7.40;;;12.30;90.60;;;;;;4975326;28;20023;-80
2023/06/06 03:55:01;;;;;;;12.85;7.43;;;12.30;90.80;;;;;;4976900;28;20031;-79
2023/06/06 03:57:26;;;;;;;13.02;6.72;;;12.20;90.80;;;;;;4975331;28;20392;-79
2023/06/06 03:59:52;;;;;;;14.63;7.53;;;12.20;90.80;;;;;;4975592;28;20371;-78
2023/06/06 04:02:18;;;;;;;18.92;6.97;;;12.20;90.80;;;;;;4976492;28;20034;-80
2023/06/06 04:04:43;;;;;;;15.77;6.63;;;12.30;90.80;;;;;;4976549;28;20115;-80
2023/06/06 04:07:10;;;;;;;13.02;7.25;;;12.30;91.10;;;;;;4976056;28;20038;-80
2023/06/06 04:09:35;;;;;;;15.27;7.40;;;12.20;91.30;;;;;;4959453;28;20031;-79
2023/06/06 04:12:02;;;;;;;12.25;6.70;;;12.30;91.30;;;;;;4975091;28;20097;-80
2023/06/06 04:14:28;;;;;;;14.77;7.20;;;12.30;91.30;;;;;;4976027;28;20035;-80
2023/06/06 04:16:54;;;;;;;12.85;6.50;;;12.30;91.60;;;;;;4977159;28;20035;-80
2023/06/06 04:19:20;;;;;;;13.15;7.43;;;12.30;91.50;;;;;;4974917;28;20034;-78
2023/06/06 04:21:46;;;;;;;13.30;7.13;;;12.30;91.50;;;;;;4975245;28;20027;-79
2023/06/06 04:24:12;;;;;;;13.50;7.40;;;12.30;91.60;;;;;;4976736;28;20142;-79
2023/06/06 04:26:38;;;;;;;13.15;7.07;;;12.30;91.50;;;;;;4976597;28;20019;-80
2023/06/06 04:29:04;;;;;;;10.68;6.35;;;12.30;91.70;;;;;;4975905;28;20117;-81
2023/06/06 04:31:30;;;;;;;14.48;6.57;;;12.30;91.70;;;;;;4975971;28;20514;-78
2023/06/06 04:33:56;;;;;;;12.48;6.93;;;12.40;91.90;;;;;;4973873;28;20463;-77
2023/06/06 04:36:23;;;;;;;14.50;6.80;;;12.40;91.90;;;;;;4975888;28;20542;-81
2023/06/06 04:38:50;;;;;;;13.80;6.72;;;12.40;91.90;;;;;;4975705;28;20027;-80
2023/06/06 04:41:22;;;;;;;12.43;6.40;;;12.40;92.10;;;;;;4977257;28;20480;-79
2023/06/06 04:43:49;;;;;;;13.38;7.60;;;12.40;91.90;;;;;;4995227;28;20424;-79
2023/06/06 04:46:21;;;;;;;17.55;7.05;;;12.50;91.90;;;;;;5001460;28;20046;-79
2023/06/06 04:48:54;;;;;;;11.77;5.80;;;12.40;92.00;;;;;;5006078;28;20068;-79
2023/06/06 04:51:29;;;;;;;13.05;6.35;;;12.40;91.80;;;;;;5015213;28;20018;-73
2023/06/06 04:54:06;;;;;;;15.10;6.95;;;12.50;91.80;;;;;;4981455;28;20022;-73
2023/06/06 04:56:32;;;;;;;11.82;5.57;;;12.50;91.80;;;;;;4991932;28;20030;-74
2023/06/06 04:59:05;;;;;;;13.00;6.40;;;12.60;91.80;;;;;;4988669;28;20038;-72
2023/06/06 05:01:34;;;;;;;12.00;6.47;;;12.60;91.80;;;;;;4988968;28;20392;-70
2023/06/06 05:04:00;;;;;;;13.30;6.63;;;12.60;91.80;;;;;;4973023;28;20030;-71
2023/06/06 05:06:27;;;;;;;10.15;5.45;;;12.60;91.70;;;;;;4985577;28;20026;-72
2023/06/06 05:08:54;;;;;;;15.82;6.55;;;12.70;91.70;;;;;;4973968;28;20114;-72
2023/06/06 05:11:20;;;;;;;13.27;6.88;;;12.70;91.70;;;;;;4971352;28;20038;-72
2023/06/06 05:13:46;;;;;;;13.55;6.65;;;12.70;91.70;;;;;;4956429;28;20035;-72
2023/06/06 05:16:11;;;;;;;16.65;6.72;;;12.70;91.80;;;;;;4974541;28;20027;-72
2023/06/06 05:18:37;;;;;;;17.25;6.30;;;12.80;91.90;;;;;;4974922;28;20058;-72
2023/06/06 05:21:04;;;;;;;15.68;7.57;;;12.80;91.80;;;;;;4997853;28;20121;-72
2023/06/06 05:23:30;;;;;;;13.25;6.15;;;12.80;91.90;;;;;;5013629;28;20459;-72
2023/06/06 05:25:58;;;;;;;13.57;5.97;;;12.90;91.90;;;;;;5028689;28;20426;-72
2023/06/06 05:28:24;;;;;;;12.23;6.50;;;12.90;91.80;;;;;;5000053;28;20054;-72
2023/06/06 05:30:52;;;;;;;14.20;5.60;;;13.00;91.80;;;;;;4974561;28;20045;-72
2023/06/06 05:33:18;;;;;;;13.77;6.55;;;13.00;91.80;;;;;;4974421;28;20126;-72
2023/06/06 05:35:46;;;;;;;12.60;5.78;;;13.00;91.80;;;;;;4990753;28;20035;-73
2023/06/06 05:38:12;;;;;;;12.85;6.18;;;13.10;91.60;;;;;;4989958;28;20386;-72
2023/06/06 05:40:37;;;;;;;12.00;5.70;;;13.10;91.50;;;;;;5005822;28;20121;-72
2023/06/06 05:43:03;;;;;;;10.95;5.70;;;13.20;91.40;;;;;;4989527;28;20026;-72
2023/06/06 05:45:29;;;;;;;12.02;5.50;;;13.20;91.30;;;;;;4981511;28;20500;-72
2023/06/06 05:47:54;;;;;;;11.63;5.22;;;13.20;91.20;;;;;;4984481;28;20081;-72
2023/06/06 05:50:20;;;;;;;13.43;6.10;;;13.30;91.10;;;;;;4991724;28;20069;-73
2023/06/06 05:52:45;;;;;;;9.80;5.22;;;13.30;91.10;;;;;;4974184;28;20045;-73
2023/06/06 05:55:29;;;;;;;16.00;5.70;;;13.40;91.00;;;;;;4974293;28;20039;-73
2023/06/06 05:57:57;;;;;;;11.63;4.95;;;13.40;91.00;;;;;;4974242;28;20110;-74
2023/06/06 06:00:28;;;;;;;11.30;5.50;;;13.50;91.10;;;;;;4989523;28;20498;-78
2023/06/06 06:02:58;;;;;;;12.98;5.85;;;13.50;90.90;;;;;;4977243;28;20035;-81
2023/06/06 06:05:28;;;;;;;12.48;6.00;;;13.60;90.80;;;;;;4978576;28;20034;-80
2023/06/06 06:07:55;;;;;;;11.38;5.40;;;13.60;90.80;;;;;;4978088;28;20035;-79
2023/06/06 06:10:21;;;;;;;11.60;5.53;;;13.60;90.60;;;;;;4976731;28;20031;-79
2023/06/06 06:12:47;;;;;;;9.95;5.05;;;13.70;90.60;;;;;;4992960;28;20031;-80
2023/06/06 06:15:13;;;;;;;10.15;4.32;;;13.70;90.50;;;;;;4977923;28;20039;-78
2023/06/06 06:17:38;;;;;;;12.10;5.60;;;13.80;90.60;;;;;;4977885;28;20058;-80
2023/06/06 06:20:08;;;;;;;10.55;4.75;;;13.80;90.80;;;;;;4977513;28;20034;-80
2023/06/06 06:22:37;;;;;;;9.05;4.20;;;13.90;90.60;;;;;;4977829;28;20102;-80
2023/06/06 06:25:12;;;;;;;11.63;4.72;;;13.90;90.60;;;;;;4976343;28;20035;-81
2023/06/06 06:27:38;;;;;;;8.63;4.93;;;14.00;90.50;;;;;;4977572;28;20570;-77
2023/06/06 06:30:05;;;;;;;9.88;4.65;;;14.00;90.40;;;;;;4992901;28;20055;-79
2023/06/06 06:32:34;;;;;;;8.45;4.07;;;14.10;90.30;;;;;;4977841;28;20345;-77
2023/06/06 06:35:01;;;;;;;7.93;4.15;;;14.10;90.20;;;;;;4977139;28;20430;-79
2023/06/06 06:37:30;;;;;;;9.05;4.60;;;14.20;90.10;;;;;;4977630;28;20037;-80
2023/06/06 06:39:57;;;;;;;9.13;4.22;;;14.30;90.00;;;;;;4977470;28;20027;-81
2023/06/06 06:42:23;;;;;;;6.95;3.80;;;14.30;89.70;;;;;;4977706;28;20038;-79
2023/06/06 06:44:49;;;;;;;8.55;4.20;;;14.30;89.50;;;;;;4977432;28;20035;-80
2023/06/06 06:47:15;;;;;;;9.52;4.00;;;14.40;89.30;;;;;;4976117;28;20031;-80
2023/06/06 06:49:41;;;;;;;12.02;4.72;;;14.50;89.10;;;;;;4992250;28;20113;-79
2023/06/06 06:52:11;;;;;;;8.00;4.40;;;14.50;88.80;;;;;;4978090;28;20035;-81
2023/06/06 06:54:45;;;;;;;12.00;5.38;;;14.60;88.60;;;;;;4992440;28;20121;-82
2023/06/06 06:57:11;;;;;;;12.18;4.68;;;14.70;88.40;;;;;;4975803;28;20063;-79
2023/06/06 06:59:37;;;;;;;8.90;4.38;;;14.80;88.30;;;;;;4992279;28;20031;-80
2023/06/06 07:02:03;;;;;;;9.00;3.95;;;14.80;88.10;;;;;;4977447;28;20090;-79
2023/06/06 07:04:28;;;;;;;8.77;3.83;;;14.80;87.90;;;;;;4977472;28;20023;-80
2023/06/06 07:06:55;;;;;;;10.05;3.67;;;14.90;87.80;;;;;;4992472;28;20054;-82
2023/06/06 07:09:21;;;;;;;8.98;3.70;;;15.00;87.60;;;;;;4977587;28;20033;-80
2023/06/06 07:11:46;;;;;;;7.45;4.03;;;15.10;87.40;;;;;;4977426;28;20042;-81
2023/06/06 07:14:12;;;;;;;8.65;3.28;;;15.10;87.20;;;;;;4977121;28;20039;-79
2023/06/06 07:16:38;;;;;;;9.02;3.90;;;15.20;87.10;;;;;;4977657;28;20061;-80
2023/06/06 07:19:03;;;;;;;12.02;3.80;;;15.30;87.00;;;;;;4976076;28;20035;-79
2023/06/06 07:21:29;;;;;;;8.65;3.38;;;15.40;86.80;;;;;;4977231;28;20033;-79
2023/06/06 07:23:55;;;;;;;7.50;3.75;;;15.40;86.50;;;;;;4991947;28;20050;-79
2023/06/06 07:26:21;;;;;;;7.53;3.67;;;15.50;86.30;;;;;;4975679;28;20031;-77
2023/06/06 07:28:46;;;;;;;9.27;3.60;;;15.60;86.00;;;;;;4976630;28;20026;-78
2023/06/06 07:31:16;;;;;;;9.38;3.58;;;15.60;85.70;;;;;;4991614;28;20042;-78
2023/06/06 07:33:42;;;;;;;10.05;3.70;;;15.70;85.40;;;;;;4991732;28;20051;-78
2023/06/06 07:36:08;;;;;;;6.43;3.85;;;15.80;85.10;;;;;;4991723;28;20066;-80
2023/06/06 07:38:34;;;;;;;10.45;3.67;;;15.90;84.80;;;;;;4976558;28;20487;-77
2023/06/06 07:41:00;;;;;;;7.18;3.00;;;15.90;84.40;;;;;;4975510;28;20050;-79
2023/06/06 07:43:26;;;;;;;8.75;3.28;;;16.00;84.10;;;;;;4977157;28;20038;-80
2023/06/06 07:45:52;;;;;;;11.15;3.70;;;16.10;83.90;;;;;;4976576;28;20423;-81
2023/06/06 07:48:18;;;;;;;8.38;3.65;;;16.20;83.90;;;;;;4992317;28;20094;-80
2023/06/06 07:50:44;;;;;;;9.88;3.40;;;16.20;83.80;;;;;;4977026;28;20462;-80
2023/06/06 07:53:10;;;;;;;10.27;3.80;;;16.30;83.70;;;;;;4976532;28;20118;-79
2023/06/06 07:55:37;;;;;;;9.45;3.28;;;16.40;83.60;;;;;;4976401;28;20042;-78
2023/06/06 07:58:05;;;;;;;11.40;3.55;;;16.50;83.40;;;;;;4975983;28;20042;-81
2023/06/06 08:00:31;;;;;;;7.43;3.08;;;16.50;83.10;;;;;;4991479;28;20027;-81
2023/06/06 08:02:56;;;;;;;10.10;3.30;;;16.60;83.00;;;;;;4974662;28;20499;-80
2023/06/06 08:05:22;;;;;;;8.18;3.40;;;16.70;82.70;;;;;;4975190;28;20027;-81
2023/06/06 08:07:48;;;;;;;10.32;3.35;;;16.80;82.40;;;;;;4977793;28;20039;-80
2023/06/06 08:10:14;;;;;;;6.68;3.10;;;16.80;82.20;;;;;;4974984;28;20479;-80
2023/06/06 08:12:39;;;;;;;7.05;3.00;;;16.90;82.20;;;;;;4976132;28;20038;-78
2023/06/06 08:15:06;;;;;;;8.85;3.60;;;17.00;81.90;;;;;;4992507;28;20030;-79
2023/06/06 08:17:32;;;;;;;14.27;3.35;;;17.00;81.60;;;;;;4976738;28;20035;-77
2023/06/06 08:19:57;;;;;;;7.63;3.38;;;17.10;81.40;;;;;;4975821;28;20387;-77
2023/06/06 08:22:24;;;;;;;7.32;3.17;;;17.20;81.10;;;;;;4975551;28;20033;-78
2023/06/06 08:24:50;;;;;;;11.18;3.50;;;17.30;80.80;;;;;;4974461;28;20034;-79
2023/06/06 08:27:16;;;;;;;5.78;2.42;;;17.40;80.50;;;;;;4974360;28;20035;-79
2023/06/06 08:29:42;;;;;;;8.95;3.42;;;17.50;80.20;;;;;;4974846;28;20046;-80
2023/06/06 08:32:08;;;;;;;6.65;2.80;;;17.50;79.90;;;;;;4976269;28;20392;-79
2023/06/06 08:34:34;;;;;;;7.85;3.17;;;17.60;79.90;;;;;;4976454;28;20500;-80
2023/06/06 08:37:00;;;;;;;8.57;3.63;;;17.60;79.80;;;;;;4976104;28;20032;-79
2023/06/06 08:39:25;;;;;;;7.50;2.95;;;17.70;79.70;;;;;;4975834;28;20030;-78
2023/06/06 08:41:58;;;;;;;6.55;2.47;;;17.80;79.60;;;;;;4990697;28;20035;-79
2023/06/06 08:44:24;;;;;;;9.05;2.92;;;17.90;79.20;;;;;;4975609;28;20030;-79
2023/06/06 08:46:57;;;;;;;5.22;2.75;;;18.00;79.00;;;;;;4973756;28;20372;-73
2023/06/06 08:49:26;;;;;;;6.30;3.03;;;18.00;78.60;;;;;;4986536;28;20019;-73
2023/06/06 08:51:52;;;;;;;6.65;3.22;;;18.10;78.30;;;;;;4974957;28;20282;-73
2023/06/06 08:54:19;;;;;;;6.65;2.92;;;18.20;78.00;;;;;;4973474;28;20388;-72
2023/06/06 08:56:45;;;;;;;7.00;2.95;;;18.30;77.70;;;;;;4957589;28;20030;-73
2023/06/06 08:59:11;;;;;;;9.45;2.92;;;18.40;77.70;;;;;;4973559;28;20031;-72
2023/06/06 09:01:40;;;;;;;5.32;2.70;;;18.40;77.50;;;;;;4973669;28;20031;-74
2023/06/06 09:04:07;;;;;;;6.82;2.67;;;18.50;77.30;;;;;;4974805;28;20088;-73
2023/06/06 09:06:43;;;;;;;9.02;3.03;;;18.60;77.00;;;;;;4975058;28;20050;-73
2023/06/06 09:09:09;;;;;;;6.55;2.72;;;18.70;77.40;;;;;;4974028;28;20030;-72
2023/06/06 09:11:35;;;;;;;6.53;2.70;;;18.80;76.60;;;;;;4988386;28;20036;-72
2023/06/06 09:14:01;;;;;;;6.07;2.35;;;18.80;76.50;;;;;;4993020;28;20101;-73
2023/06/06 09:16:28;;;;;;;4.93;2.75;;;18.90;76.30;;;;;;4992661;28;20023;-73
2023/06/06 09:18:57;;;;;;;5.53;2.70;;;19.00;76.10;;;;;;4993932;28;20475;-73
2023/06/06 09:21:26;;;;;;;7.32;3.00;;;19.10;75.80;;;;;;4994082;28;20102;-74
2023/06/06 09:23:54;;;;;;;6.63;2.42;;;19.20;76.10;;;;;;4992713;28;20033;-73
2023/06/06 09:26:20;;;;;;;6.00;2.60;;;19.20;75.30;;;;;;4994006;28;20027;-74
2023/06/06 09:28:47;;;;;;;7.25;2.80;;;19.30;75.10;;;;;;4994177;28;20027;-74
2023/06/06 09:31:37;;;;;;;7.00;2.67;;;19.40;75.00;;;;;;4993980;28;20510;-73
2023/06/06 09:34:03;;;;;;;8.30;2.83;;;19.50;74.90;;;;;;4992722;28;20406;-73
2023/06/06 09:36:31;;;;;;;6.30;2.53;;;19.60;75.40;;;;;;4995049;28;20030;-73
2023/06/06 09:39:19;;;;;;;7.70;2.58;;;19.70;74.40;;;;;;4982911;28;20022;-73
2023/06/06 09:41:47;;;;;;;5.78;2.72;;;19.80;73.70;;;;;;5000352;28;20031;-73
2023/06/06 09:44:20;;;;;;;5.57;2.38;;;19.90;73.60;;;;;;4999262;28;20034;-74
2023/06/06 09:46:47;;;;;;;7.18;2.35;;;20.00;73.20;;;;;;5000430;28;20027;-74
2023/06/06 09:49:14;;;;;;;9.65;2.80;;;20.10;73.70;;;;;;4999179;28;20030;-74
2023/06/06 09:51:43;;;;;;;5.63;2.47;;;20.10;72.90;;;;;;4999160;28;20038;-72
2023/06/06 09:54:12;;;;;;;4.95;2.55;;;20.30;72.40;;;;;;4998929;28;20030;-73
2023/06/06 09:56:42;;;;;;;9.75;3.00;;;20.30;72.00;;;;;;4998982;28;20618;-73
2023/06/06 09:59:10;;;;;;;5.18;2.08;;;20.40;71.70;;;;;;4998821;28;20022;-72
2023/06/06 10:01:38;;;;;;;6.75;2.72;;;20.50;71.40;;;;;;4999027;28;20030;-74
2023/06/06 10:04:05;;;;;;;5.47;2.55;;;20.60;71.00;;;;;;4998900;28;20061;-74
2023/06/06 10:06:33;;;;;;;4.93;2.10;;;20.70;70.70;;;;;;4982697;28;20034;-73
2023/06/06 10:09:05;;;;;;;6.25;2.30;;;20.70;70.40;;;;;;5000376;28;20086;-72
2023/06/06 10:11:32;;;;;;;6.88;2.58;;;20.80;70.00;;;;;;4998833;28;20181;-74
2023/06/06 10:13:58;;;;;;;5.30;2.17;;;20.90;70.00;;;;;;4996156;28;20043;-78
2023/06/06 10:16:27;;;;;;;4.88;2.47;;;21.00;69.40;;;;;;4981788;28;20033;-78
2023/06/06 10:18:53;;;;;;;6.25;2.30;;;21.10;69.20;;;;;;4980304;28;20561;-82
2023/06/06 10:21:20;;;;;;;7.05;2.40;;;21.20;68.90;;;;;;4980935;28;20035;-79
2023/06/06 10:23:45;;;;;;;8.65;2.45;;;21.20;68.80;;;;;;4979923;28;20023;-79
2023/06/06 10:26:18;;;;;;;8.25;2.72;;;21.30;68.60;;;;;;4979866;28;20030;-81
2023/06/06 10:29:11;;;;;;;4.47;2.22;;;21.40;68.40;;;;;;4982264;28;20031;-79
2023/06/06 10:31:46;;;;;;;5.95;2.63;;;21.50;68.00;;;;;;4979743;28;20045;-78
2023/06/06 10:34:21;;;;;;;7.07;2.42;;;21.60;68.10;;;;;;4980046;28;20050;-79
2023/06/06 10:36:47;;;;;;;5.82;2.00;;;21.80;67.80;;;;;;4980621;28;20510;-77
2023/06/06 10:39:22;;;;;;;7.82;1.70;;;22.00;67.50;;;;;;4980623;28;20113;-78
2023/06/06 10:41:57;;;;;;;5.13;2.42;;;22.10;66.80;;;;;;4981033;28;20462;-78
2023/06/06 10:44:35;;;;;;;6.65;2.22;;;22.30;66.40;;;;;;4980099;28;20070;-80
2023/06/06 10:47:23;;;;;;;8.25;2.65;;;22.50;65.90;;;;;;4980611;28;20023;-78
2023/06/06 10:50:17;;;;;;;6.60;2.63;;;22.70;65.30;;;;;;4977949;28;20432;-81
2023/06/06 10:52:58;;;;;;;6.75;2.38;;;22.90;65.00;;;;;;4978408;28;20031;-80
2023/06/06 10:55:24;;;;;;;5.05;1.90;;;23.10;64.80;;;;;;4977611;28;20018;-80
2023/06/06 10:57:54;;;;;;;3.65;1.83;;;23.40;64.70;;;;;;4977782;28;20448;-82
2023/06/06 11:00:25;;;;;;;4.03;1.70;;;23.50;64.40;;;;;;4978157;28;20037;-79
2023/06/06 11:02:52;;;;;;;5.93;2.08;;;23.70;63.90;;;;;;4977416;28;20115;-81
2023/06/06 11:05:21;;;;;;;5.22;1.58;;;23.90;63.30;;;;;;4977543;28;20078;-78
2023/06/06 11:07:49;;;;;;;6.18;2.38;;;24.20;62.60;;;;;;4977334;28;20082;-78
2023/06/06 11:10:20;;;;;;;7.68;2.25;;;24.40;62.70;;;;;;4975884;28;20082;-82
2023/06/06 11:12:48;;;;;;;5.55;1.98;;;24.50;61.30;;;;;;4976349;28;20109;-79
2023/06/06 11:15:31;;;;;;;5.15;2.17;;;24.70;61.00;;;;;;4977423;28;20030;-80
2023/06/06 11:18:03;;;;;;;3.97;1.70;;;25.00;60.10;;;;;;4977581;28;20063;-80
2023/06/06 11:20:37;;;;;;;5.18;2.17;;;25.20;60.00;;;;;;4976138;28;20019;-81
2023/06/06 11:23:03;;;;;;;9.00;2.67;;;25.40;59.80;;;;;;4977816;28;20101;-81
2023/06/06 11:25:36;;;;;;;5.93;1.88;;;25.70;59.60;;;;;;4976684;28;20114;-81
2023/06/06 11:28:05;;;;;;;5.55;1.60;;;25.90;59.00;;;;;;4977857;28;20498;-83
2023/06/06 11:30:32;;;;;;;4.85;1.58;;;26.10;58.70;;;;;;4977012;28;20031;-80
2023/06/06 11:32:59;;;;;;;3.33;1.65;;;26.30;58.00;;;;;;4977741;28;20031;-78
2023/06/06 11:35:28;;;;;;;6.43;1.90;;;26.50;57.50;;;;;;4977328;28;20556;-79
2023/06/06 11:37:54;;;;;;;5.60;1.77;;;26.80;56.90;;;;;;4975463;28;20045;-82
2023/06/06 11:40:19;;;;;;;6.47;2.03;;;27.00;56.20;;;;;;4976701;28;20424;-79
2023/06/06 11:42:45;;;;;;;4.70;1.73;;;27.20;55.80;;;;;;4977937;28;20521;-80
2023/06/06 11:45:15;;;;;;;5.07;1.77;;;27.30;55.20;;;;;;4977438;28;20510;-79
2023/06/06 11:47:41;;;;;;;6.93;2.10;;;27.60;54.70;;;;;;4978812;28;20030;-79
2023/06/06 11:50:08;;;;;;;6.53;1.70;;;27.70;54.40;;;;;;4978538;28;20496;-83
2023/06/06 11:53:05;;;;;;;6.88;2.00;;;27.90;54.00;;;;;;4978985;28;20037;-81
2023/06/06 11:55:37;;;;;;;5.00;1.52;;;28.20;53.30;;;;;;4982067;28;20027;-81
2023/06/06 11:58:04;;;;;;;11.80;2.65;;;28.40;53.30;;;;;;4977082;28;20122;-80
2023/06/06 12:00:31;;;;;;;5.70;2.08;;;28.60;53.10;;;;;;4976145;28;20050;-79
2023/06/06 12:02:59;;;;;;;3.50;1.52;;;28.80;52.70;;;;;;4975052;28;20146;-80
2023/06/06 12:05:25;;;;;;;4.47;1.70;;;28.90;52.20;;;;;;4977577;28;20030;-80
2023/06/06 12:07:54;;;;;;;3.97;1.52;;;29.20;51.70;;;;;;4978133;28;20496;-81
2023/06/06 12:10:25;;;;;;;3.58;1.35;;;29.40;51.30;;;;;;4976642;28;20210;-81
2023/06/06 12:12:51;;;;;;;5.13;1.80;;;29.60;50.70;;;;;;4977617;28;20037;-80
2023/06/06 12:15:17;;;;;;;6.07;2.00;;;29.70;50.30;;;;;;4978217;28;20046;-81
2023/06/06 12:17:43;;;;;;;6.15;1.60;;;29.90;50.00;;;;;;4978063;28;20420;-81
2023/06/06 12:20:10;;;;;;;3.88;1.70;;;30.10;49.80;;;;;;4976100;28;20372;-79
2023/06/06 12:22:36;;;;;;;6.55;1.83;;;30.30;49.30;;;;;;4976156;28;20399;-80
2023/06/06 12:25:03;;;;;;;5.68;1.63;;;30.40;48.90;;;;;;4975396;28;20030;-80
2023/06/06 12:27:36;;;;;;;3.60;1.70;;;30.60;48.60;;;;;;4975583;28;20035;-81
2023/06/06 12:30:02;;;;;;;;;;;30.80;48.20;;;;;;4977379;28;20055;-82
2023/06/06 12:32:30;;;;;;;3.72;1.38;;;31.00;48.10;;;;;;4974570;28;19949;-81
2023/06/06 12:35:05;;;;;;;5.25;1.70;;;31.10;48.30;;;;;;4976617;28;20097;-81
2023/06/06 12:37:42;;;;;;;4.03;1.40;;;31.30;48.00;;;;;;4975911;28;20031;-81
2023/06/06 12:40:20;;;;;;;3.78;1.52;;;31.50;47.20;;;;;;4974818;28;20383;-80
2023/06/06 12:43:00;;;;;;;4.15;1.45;;;31.70;46.70;;;;;;4976474;28;20035;-80
2023/06/06 12:45:27;;;;;;;5.45;1.85;;;31.80;46.00;;;;;;4977599;28;20059;-81